Pagrindinis puslapis
METAR-TAF:

METAR-TAF

Oro uostai :

Marathon, Florida, Jungtinės Amerikos Valstijos

platuma: 24-43-33N, ilguma: 081-02-52W, Aukštis: 2 m

Dabartinis oras

Ataskaita buvo paskelbta 53 minutes, ne 14:53 UTC
Vėjas 9 kt iš Šiaurės/Šiaurės Rytų
Temperatūra 31°C
Drėgmė 63%
Slėgis 1015 hPa
Matomumas: 16.1 km
Giedras dangus

METAR: KMTH 241453Z AUTO 03009KT 10SM CLR 31/23 A2996 RMK AO2 SLP146 T03110233 51013

Laikas: 11:46 (15:46 UTC)

Prognozė

Ataskaita buvo paskelbta 4 valandos ir 23 minutes, ne 11:23 UTC
Prognozė galioja nuo 24 metu 12 UTC su 25 metu 12 UTC
Vėjas 6 kt iš Rytų/Šiaurės Rytų
Matomumas: 10 km
Mažai debesys ne aukštis 3000 ft

TAF: KMTH 241123Z 2412/2512 07006KT P6SM FEW030

Orai ataskaitas ir orų prognozės (METAR, TAF).

turimą stotys yra geltonos ir raudonos taškus žemėlapyje.

Perkelti pele per norėdami pamatyti stoties vardą.

Tada spustelėkite, norėdami matyti oro stebėjimo ir prognozės.

Norėdami pakeisti žemėlapį: spustelėkite ant žalios mygtukų su juodo kryžiaus žemyn,; žalią mygtuką su brūkšneliu, jei norite nutolinti; arba žalių rodyklių gretimoms žemėlapius.


METAR-TAF: